Time;durP1;ratioP1;P1;durP2;ratioP2;P2;SDS_P1;SDS_P2;PMS_P1;PMS_P2;Temp;Humidity;BMP_temperature;BMP_pressure;BME280_temperature;BME280_humidity;BME280_pressure;Samples;Min_cycle;Max_cycle;Signal;HPM_P1;HPM_P2
2021/03/19 00:03:57;;;;;;;17.38;9.65;;;0.60;99.90;;;;;;8357664;28;20037;-64
2021/03/19 00:07:58;;;;;;;15.65;9.18;;;0.60;99.90;;;;;;8339776;28;20055;-63
2021/03/19 00:11:59;;;;;;;18.02;9.40;;;0.70;99.90;;;;;;8352346;28;20397;-63
2021/03/19 00:16:00;;;;;;;16.13;9.10;;;0.60;99.90;;;;;;8372783;28;20062;-64
2021/03/19 00:20:00;;;;;;;21.15;10.15;;;0.50;99.90;;;;;;8357846;28;20487;-63
2021/03/19 00:24:01;;;;;;;20.70;11.70;;;0.30;99.90;;;;;;8371966;28;20060;-64
2021/03/19 00:28:03;;;;;;;22.35;10.82;;;0.30;99.90;;;;;;8390838;28;20021;-64
2021/03/19 00:32:04;;;;;;;19.75;10.68;;;0.10;99.90;;;;;;8389883;28;20031;-63
2021/03/19 00:36:04;;;;;;;17.95;9.18;;;0.00;99.90;;;;;;8389618;28;20024;-64
2021/03/19 00:40:08;;;;;;;15.25;8.45;;;0.20;99.90;;;;;;8389522;28;20067;-63
2021/03/19 00:44:08;;;;;;;17.20;8.77;;;0.40;99.90;;;;;;8373562;28;20040;-64
2021/03/19 00:48:11;;;;;;;17.10;9.05;;;0.60;99.90;;;;;;8356019;28;20380;-63
2021/03/19 00:52:11;;;;;;;16.75;9.40;;;0.20;99.90;;;;;;8355230;28;20415;-63
2021/03/19 00:56:12;;;;;;;18.00;9.38;;;0.40;99.90;;;;;;8351323;28;20479;-64
2021/03/19 01:00:14;;;;;;;19.88;10.55;;;0.30;99.90;;;;;;8355691;28;20482;-63
2021/03/19 01:04:15;;;;;;;22.10;10.10;;;0.50;99.90;;;;;;8356105;28;20029;-63
2021/03/19 01:08:15;;;;;;;21.08;10.57;;;0.40;99.90;;;;;;8355430;28;20025;-64
2021/03/19 01:12:16;;;;;;;23.13;11.18;;;0.30;99.90;;;;;;8356188;28;20303;-64
2021/03/19 01:16:16;;;;;;;20.42;10.10;;;0.20;99.90;;;;;;8351126;28;20498;-63
2021/03/19 01:20:18;;;;;;;21.23;10.38;;;0.30;99.90;;;;;;8338905;28;20031;-64
2021/03/19 01:24:19;;;;;;;18.58;10.20;;;0.40;99.90;;;;;;8389676;28;20687;-64
2021/03/19 01:28:19;;;;;;;21.08;10.50;;;0.20;99.90;;;;;;8371503;28;20086;-63
2021/03/19 01:32:20;;;;;;;18.80;9.93;;;0.10;99.90;;;;;;8388970;28;20402;-64
2021/03/19 01:36:20;;;;;;;19.17;10.77;;;-0.10;99.90;;;;;;8389676;28;20039;-64
2021/03/19 01:40:24;;;;;;;19.45;9.48;;;-0.10;99.90;;;;;;8371526;28;20070;-63
2021/03/19 01:45:04;;;;;;;16.80;9.40;;;-0.10;99.90;;;;;;8352376;28;20025;-64
2021/03/19 01:49:42;;;;;;;17.55;9.20;;;-0.20;99.90;;;;;;8324008;28;20037;-64
2021/03/19 01:54:20;;;;;;;18.08;9.43;;;-0.30;99.90;;;;;;8358684;28;20035;-64
2021/03/19 01:58:58;;;;;;;19.23;9.75;;;-0.30;99.90;;;;;;8353349;28;20065;-62
2021/03/19 02:03:36;;;;;;;19.17;9.77;;;-0.30;99.90;;;;;;8364040;28;20025;-64
2021/03/19 02:08:14;;;;;;;19.08;9.70;;;-0.50;99.90;;;;;;8347069;28;20044;-64
2021/03/19 02:12:52;;;;;;;19.38;9.13;;;-0.50;99.90;;;;;;8359063;28;20025;-64
2021/03/19 02:17:30;;;;;;;21.25;9.93;;;-0.30;99.90;;;;;;8346122;28;20025;-64
2021/03/19 02:22:08;;;;;;;16.92;9.10;;;-0.60;99.90;;;;;;8376089;28;20147;-64
2021/03/19 02:26:46;;;;;;;17.60;9.63;;;-0.70;99.90;;;;;;8397325;28;20028;-64
2021/03/19 02:31:09;;;;;;;17.83;9.07;;;-0.80;99.90;;;;;;8397500;28;20129;-64
2021/03/19 02:35:16;;;;;;;18.33;9.80;;;-0.90;99.90;;;;;;8379195;28;20073;-64
2021/03/19 02:39:17;;;;;;;17.80;9.30;;;-0.80;99.90;;;;;;8397158;28;20107;-64
2021/03/19 02:43:19;;;;;;;19.77;10.20;;;-0.80;99.90;;;;;;8378623;28;20036;-64
2021/03/19 02:47:21;;;;;;;22.58;10.35;;;-1.00;99.90;;;;;;8368440;28;20434;-63
2021/03/19 02:51:21;;;;;;;18.75;9.95;;;-1.10;99.90;;;;;;8373943;28;20028;-64
2021/03/19 02:55:22;;;;;;;19.98;10.23;;;-1.10;99.90;;;;;;8314245;28;20045;-63
2021/03/19 02:59:22;;;;;;;19.17;10.35;;;-1.20;99.90;;;;;;8330480;28;20025;-64
2021/03/19 03:03:23;;;;;;;20.98;10.57;;;-1.30;99.90;;;;;;8339863;28;20036;-63
2021/03/19 03:07:27;;;;;;;22.08;11.60;;;-1.40;99.90;;;;;;8363100;28;20032;-64
2021/03/19 03:11:27;;;;;;;24.90;11.95;;;-1.40;99.90;;;;;;8362370;28;20028;-64
2021/03/19 03:15:28;;;;;;;22.10;11.43;;;-1.70;99.90;;;;;;8345415;28;20029;-64
2021/03/19 03:19:29;;;;;;;17.23;9.00;;;-1.60;99.90;;;;;;8345824;28;20085;-65
2021/03/19 03:23:30;;;;;;;19.92;9.65;;;-1.70;99.90;;;;;;8390884;28;20043;-64
2021/03/19 03:27:30;;;;;;;23.67;10.35;;;-1.60;99.90;;;;;;8395944;28;20021;-64
2021/03/19 03:31:31;;;;;;;20.85;10.52;;;-1.50;99.90;;;;;;8395420;28;20020;-64
2021/03/19 03:35:33;;;;;;;20.40;10.10;;;-1.70;99.90;;;;;;8377204;28;20210;-64
2021/03/19 03:39:34;;;;;;;25.65;11.10;;;-1.80;99.90;;;;;;8395319;28;20059;-64
2021/03/19 03:43:35;;;;;;;21.73;9.98;;;-1.80;99.90;;;;;;8394862;28;20047;-64
2021/03/19 03:47:36;;;;;;;20.05;10.30;;;-1.90;99.90;;;;;;8346371;28;20170;-64
2021/03/19 03:51:37;;;;;;;22.80;11.52;;;-2.10;99.90;;;;;;8373859;28;20523;-64
2021/03/19 03:55:39;;;;;;;24.00;10.73;;;-2.40;99.90;;;;;;8394312;28;20494;-64
2021/03/19 03:59:39;;;;;;;22.58;10.50;;;-1.90;99.90;;;;;;8394323;28;20052;-64
2021/03/19 04:03:40;;;;;;;22.48;10.15;;;-2.10;99.90;;;;;;8371241;28;20394;-64
2021/03/19 04:07:40;;;;;;;20.63;10.43;;;-2.30;99.90;;;;;;8360174;28;20467;-64
2021/03/19 04:11:41;;;;;;;21.58;10.85;;;-2.50;99.90;;;;;;8359544;28;20025;-64
2021/03/19 04:15:42;;;;;;;24.77;11.20;;;-2.60;99.90;;;;;;8359610;28;20398;-63
2021/03/19 04:19:43;;;;;;;27.25;12.60;;;-2.40;99.90;;;;;;8359553;28;20024;-63
2021/03/19 04:23:49;;;;;;;25.25;11.68;;;-2.10;99.90;;;;;;8342113;28;20130;-63
2021/03/19 04:27:53;;;;;;;26.25;11.85;;;-2.10;99.90;;;;;;8359817;28;20027;-63
2021/03/19 04:31:54;;;;;;;24.50;11.50;;;-2.40;99.90;;;;;;8360107;28;20032;-64
2021/03/19 04:36:18;;;;;;;24.70;12.23;;;-2.40;99.90;;;;;;8360641;28;20047;-63
2021/03/19 04:40:20;;;;;;;23.67;11.70;;;-2.60;99.90;;;;;;8322173;28;20094;-64
2021/03/19 04:44:23;;;;;;;23.73;10.82;;;-2.30;99.90;;;;;;8359293;28;20029;-64
2021/03/19 04:48:24;;;;;;;26.73;11.15;;;-2.30;99.90;;;;;;8341268;28;20025;-64
2021/03/19 04:52:24;;;;;;;27.02;11.23;;;-2.20;99.90;;;;;;8363716;22;20132;-69
2021/03/19 04:56:25;;;;;;;19.67;10.15;;;-2.30;99.90;;;;;;8326784;28;20025;-69
2021/03/19 05:00:26;;;;;;;23.88;11.30;;;-2.50;99.90;;;;;;8321475;28;20032;-68
2021/03/19 05:04:28;;;;;;;23.63;10.07;;;-2.40;99.90;;;;;;8325413;28;20030;-68
2021/03/19 05:08:29;;;;;;;292.40;12.55;;;-2.50;99.90;;;;;;8326584;28;20061;-69
2021/03/19 05:12:29;;;;;;;333.88;16.58;;;-2.30;99.90;;;;;;8326251;28;20025;-68
2021/03/19 05:16:30;;;;;;;45.65;11.68;;;-2.50;99.90;;;;;;8320855;28;20057;-69
2021/03/19 05:20:31;;;;;;;25.42;11.70;;;-2.70;99.90;;;;;;8328943;28;20071;-69
2021/03/19 05:24:31;;;;;;;27.40;12.57;;;-2.60;99.90;;;;;;8357130;28;20116;-69
2021/03/19 05:28:33;;;;;;;24.90;12.18;;;-2.60;99.90;;;;;;8359228;28;20444;-69
2021/03/19 05:32:33;;;;;;;33.10;14.20;;;-2.60;99.90;;;;;;8358224;28;20474;-69
2021/03/19 05:36:35;;;;;;;39.67;14.95;;;-2.60;99.90;;;;;;8364373;28;20029;-69
2021/03/19 05:40:42;;;;;;;37.22;14.20;;;-2.80;99.90;;;;;;8365820;28;20119;-69
2021/03/19 05:44:45;;;;;;;32.05;14.98;;;-2.80;99.90;;;;;;8365387;28;20035;-70
2021/03/19 05:49:07;;;;;;;30.90;14.27;;;-2.50;99.90;;;;;;8365162;28;20025;-70
2021/03/19 05:53:17;;;;;;;30.42;14.10;;;-2.60;99.90;;;;;;8364578;28;20059;-70
2021/03/19 05:57:31;;;;;;;31.75;15.23;;;-2.60;99.90;;;;;;8346575;28;20033;-70
2021/03/19 06:01:31;;;;;;;31.45;14.82;;;-2.30;99.90;;;;;;8332426;28;20395;-71
2021/03/19 06:05:55;;;;;;;36.05;15.32;;;-1.90;99.90;;;;;;8332577;28;20033;-70
2021/03/19 06:10:16;;;;;;;33.60;15.93;;;-1.70;99.90;;;;;;8331074;28;20052;-71
2021/03/19 06:14:18;;;;;;;29.98;14.43;;;-1.60;99.90;;;;;;8331955;28;20080;-71
2021/03/19 06:18:24;;;;;;;29.63;14.48;;;-1.50;99.90;;;;;;8330642;28;20034;-71
2021/03/19 06:22:25;;;;;;;26.80;13.77;;;-1.30;99.90;;;;;;8349621;28;20276;-71
2021/03/19 06:26:32;;;;;;;31.40;15.35;;;-1.20;99.90;;;;;;8363375;28;20025;-71
2021/03/19 06:30:43;;;;;;;30.85;16.25;;;-0.90;99.90;;;;;;8351547;28;20514;-71
2021/03/19 06:34:55;;;;;;;33.72;16.70;;;-0.80;99.90;;;;;;8334569;28;20020;-71
2021/03/19 06:39:21;;;;;;;32.35;17.05;;;-0.60;99.90;;;;;;8330586;28;20029;-71
2021/03/19 06:43:27;;;;;;;33.63;17.25;;;-0.40;99.90;;;;;;8330248;28;20111;-71
2021/03/19 06:47:43;;;;;;;28.50;16.25;;;-0.20;99.90;;;;;;8328277;28;20021;-70
2021/03/19 06:52:13;;;;;;;29.30;16.85;;;0.10;99.90;;;;;;8331320;28;20018;-71
2021/03/19 06:56:17;;;;;;;30.45;14.50;;;0.20;99.90;;;;;;8331698;28;20014;-71
2021/03/19 07:00:35;;;;;;;25.52;13.43;;;1.50;99.90;;;;;;8329333;28;20112;-71
2021/03/19 07:04:55;;;;;;;29.88;14.45;;;2.20;99.90;;;;;;8331773;28;20034;-71
2021/03/19 07:09:31;;;;;;;24.13;13.02;;;3.00;99.90;;;;;;8324131;28;20025;-67
2021/03/19 07:13:39;;;;;;;22.88;12.93;;;3.20;99.90;;;;;;8325188;28;20404;-67
2021/03/19 07:17:54;;;;;;;22.50;12.10;;;3.40;99.90;;;;;;8337169;28;20451;-67
2021/03/19 07:22:27;;;;;;;25.77;13.05;;;3.90;99.90;;;;;;8328045;28;20542;-68
2021/03/19 07:26:31;;;;;;;30.25;15.27;;;3.30;99.90;;;;;;8329753;28;20022;-67
2021/03/19 07:30:40;;;;;;;21.08;11.77;;;2.80;99.90;;;;;;8329631;28;20029;-66
2021/03/19 07:34:54;;;;;;;23.40;13.82;;;2.40;99.90;;;;;;8330966;28;20074;-67
2021/03/19 07:39:50;;;;;;;24.67;13.52;;;2.30;99.90;;;;;;8327599;28;20095;-66
2021/03/19 07:44:20;;;;;;;24.23;12.65;;;2.40;99.90;;;;;;8313290;28;20038;-67
2021/03/19 07:48:33;;;;;;;23.45;13.38;;;2.30;99.90;;;;;;8315161;28;20048;-67
2021/03/19 07:52:58;;;;;;;26.15;14.48;;;2.00;99.90;;;;;;8328774;28;20036;-68
2021/03/19 07:57:04;;;;;;;24.33;13.55;;;2.20;99.90;;;;;;8328548;28;20387;-67
2021/03/19 08:01:17;;;;;;;21.98;12.57;;;2.60;99.90;;;;;;8328415;28;20458;-67
2021/03/19 08:05:23;;;;;;;23.65;13.18;;;3.00;99.90;;;;;;8337029;28;20871;-67
2021/03/19 08:09:41;;;;;;;21.40;12.82;;;3.40;99.90;;;;;;8329336;28;20108;-68
2021/03/19 08:14:03;;;;;;;21.77;11.32;;;3.60;99.90;;;;;;8323904;28;20084;-68
2021/03/19 08:18:16;;;;;;;21.20;12.35;;;3.70;99.90;;;;;;8327624;28;20071;-67
2021/03/19 08:22:42;;;;;;;21.42;11.18;;;4.10;99.90;;;;;;8327905;28;20032;-66
2021/03/19 08:27:07;;;;;;;19.98;12.15;;;4.10;99.90;;;;;;8327139;28;20026;-67
2021/03/19 08:31:23;;;;;;;24.20;12.73;;;4.00;99.90;;;;;;8324856;28;20689;-67
2021/03/19 08:35:46;;;;;;;21.85;12.52;;;4.30;99.90;;;;;;8324899;28;20029;-66
2021/03/19 08:39:47;;;;;;;21.88;13.20;;;4.70;99.90;;;;;;8324703;28;20027;-67
2021/03/19 08:43:59;;;;;;;21.45;12.02;;;4.80;99.90;;;;;;8326610;28;20029;-68
2021/03/19 08:48:03;;;;;;;21.05;12.05;;;5.00;99.90;;;;;;8318750;28;20312;-66
2021/03/19 08:52:51;;;;;;;19.95;11.15;;;5.30;99.90;;;;;;8325924;28;20025;-66
2021/03/19 08:57:11;;;;;;;20.55;11.27;;;5.20;99.90;;;;;;8252421;28;20121;-66
2021/03/19 09:01:13;;;;;;;;;;;5.10;99.90;;;;;;8311292;28;20131;-67
2021/03/19 09:05:22;;;;;;;20.23;11.38;;;5.30;99.90;;;;;;8328738;28;20342;-66
2021/03/19 09:09:35;;;;;;;21.55;12.32;;;5.40;99.90;;;;;;8325851;28;20514;-68
2021/03/19 09:13:36;;;;;;;19.77;11.25;;;5.60;99.90;;;;;;8321633;28;20036;-66
2021/03/19 09:17:42;;;;;;;19.85;11.40;;;5.60;99.90;;;;;;8330330;28;20026;-65
2021/03/19 09:21:43;;;;;;;19.75;11.20;;;5.50;99.90;;;;;;8325382;28;20372;-66
2021/03/19 09:26:04;;;;;;;21.52;12.00;;;5.50;99.90;;;;;;8335550;28;20034;-68
2021/03/19 09:30:21;;;;;;;16.48;10.23;;;5.80;99.90;;;;;;8292154;28;20029;-67
2021/03/19 09:34:44;;;;;;;17.85;11.63;;;5.70;99.90;;;;;;8322444;28;20024;-68
2021/03/19 09:38:45;;;;;;;18.95;10.98;;;5.60;99.90;;;;;;8338240;28;20618;-68
2021/03/19 09:42:48;;;;;;;16.55;10.35;;;6.20;99.90;;;;;;8322212;28;20026;-69
2021/03/19 09:47:00;;;;;;;20.92;11.50;;;6.70;99.90;;;;;;8322108;28;20029;-69
2021/03/19 09:51:07;;;;;;;18.15;11.85;;;6.70;99.90;;;;;;8321474;28;20079;-68
2021/03/19 09:55:16;;;;;;;18.73;10.93;;;6.70;99.90;;;;;;8324697;28;20108;-68
2021/03/19 09:59:26;;;;;;;14.30;10.07;;;6.90;99.90;;;;;;8331958;28;20025;-67
2021/03/19 10:03:26;;;;;;;16.80;9.95;;;7.00;99.90;;;;;;8326117;28;20032;-69
2021/03/19 10:07:27;;;;;;;12.63;8.32;;;7.20;99.90;;;;;;8340245;28;20514;-67
2021/03/19 10:11:27;;;;;;;14.52;8.40;;;7.00;99.90;;;;;;8317547;28;20113;-67
2021/03/19 10:15:28;;;;;;;14.50;9.65;;;6.80;99.90;;;;;;8318890;28;20155;-67
2021/03/19 10:19:35;;;;;;;12.40;7.72;;;7.30;99.90;;;;;;8322320;28;20037;-67
2021/03/19 10:23:39;;;;;;;15.65;9.15;;;6.70;99.90;;;;;;8317727;28;20082;-67
2021/03/19 10:27:45;;;;;;;12.85;8.07;;;7.30;99.90;;;;;;8326391;28;20036;-67
2021/03/19 10:31:53;;;;;;;13.05;8.60;;;7.40;99.90;;;;;;8334284;28;20053;-67
2021/03/19 10:36:05;;;;;;;10.27;5.95;;;7.60;99.90;;;;;;8330458;28;20044;-67
2021/03/19 10:40:19;;;;;;;11.95;8.18;;;8.40;99.90;;;;;;8329225;28;20044;-67
2021/03/19 10:44:33;;;;;;;9.05;6.47;;;8.80;99.90;;;;;;8325785;28;20626;-66
2021/03/19 10:48:51;;;;;;;12.52;6.60;;;8.30;99.90;;;;;;8325758;28;20045;-66
2021/03/19 10:53:01;;;;;;;9.02;6.70;;;8.40;99.90;;;;;;8324525;28;20029;-68
2021/03/19 10:57:25;;;;;;;10.60;6.88;;;9.00;99.90;;;;;;8326643;28;20021;-66
2021/03/19 11:01:44;;;;;;;9.10;6.20;;;;;;;;;;8327479;28;20410;-67
2021/03/19 11:05:58;;;;;;;11.02;6.97;;;10.90;99.70;;;;;;8336410;28;20029;-67
2021/03/19 11:10:20;;;;;;;9.90;7.18;;;;;;;;;;8336347;28;20037;-68
2021/03/19 11:14:25;;;;;;;11.05;7.15;;;12.50;90.10;;;;;;8327254;28;20506;-67
2021/03/19 11:18:38;;;;;;;11.40;6.88;;;12.30;88.90;;;;;;8333010;28;20017;-68
2021/03/19 11:22:44;;;;;;;10.63;7.45;;;11.40;92.70;;;;;;8329408;28;20446;-69
2021/03/19 11:26:55;;;;;;;9.70;6.85;;;11.00;93.30;;;;;;8326220;28;20025;-67
2021/03/19 11:31:10;;;;;;;;;;;10.60;93.70;;;;;;8320925;28;20484;-68
2021/03/19 11:35:17;;;;;;;11.60;7.43;;;10.10;91.20;;;;;;8324416;28;20046;-68
2021/03/19 11:39:36;;;;;;;11.80;8.07;;;8.90;93.40;;;;;;8328873;28;20086;-68
2021/03/19 11:43:37;;;;;;;4.15;3.13;;;7.20;99.50;;;;;;8326150;28;20028;-67
2021/03/19 11:47:45;;;;;;;11.60;6.53;;;5.10;99.90;;;;;;8324138;28;20061;-69
2021/03/19 11:51:47;;;;;;;9.18;6.25;;;4.20;99.90;;;;;;8325250;28;20031;-67
2021/03/19 11:55:51;;;;;;;14.68;9.13;;;3.80;99.90;;;;;;8352285;22;20423;-64
2021/03/19 11:59:52;;;;;;;9.38;5.70;;;3.40;99.90;;;;;;8326648;28;20034;-65
2021/03/19 12:03:54;;;;;;;13.25;8.93;;;3.30;99.90;;;;;;8326845;28;20033;-64
2021/03/19 12:07:55;;;;;;;12.95;9.35;;;3.60;99.90;;;;;;8326327;28;20029;-64
2021/03/19 12:11:57;;;;;;;12.43;7.70;;;3.90;99.90;;;;;;8337890;28;20079;-64
2021/03/19 12:15:57;;;;;;;12.63;7.65;;;4.10;99.90;;;;;;8326319;28;20546;-64
2021/03/19 12:19:58;;;;;;;12.82;7.72;;;4.20;99.90;;;;;;8327011;28;20033;-65
2021/03/19 12:23:59;;;;;;;12.70;7.97;;;4.20;99.90;;;;;;8326842;28;20183;-64
2021/03/19 12:28:00;;;;;;;11.38;7.00;;;4.60;99.90;;;;;;8326288;28;20035;-64
2021/03/19 12:32:00;;;;;;;146.98;133.60;;;8.60;99.90;;;;;;8323585;28;20101;-65
2021/03/19 12:36:01;;;;;;;11.52;6.88;;;13.80;92.40;;;;;;8321126;28;20033;-65
2021/03/19 12:40:04;;;;;;;8.48;6.75;;;16.10;72.50;;;;;;8322694;28;20091;-66
2021/03/19 12:44:04;;;;;;;10.48;7.20;;;18.00;60.40;;;;;;8309642;28;20060;-65
2021/03/19 12:48:06;;;;;;;12.00;7.85;;;17.70;57.00;;;;;;8320464;28;20051;-65
2021/03/19 12:52:07;;;;;;;7.78;6.95;;;17.80;54.70;;;;;;8322636;28;20037;-65
2021/03/19 12:56:07;;;;;;;9.70;7.43;;;19.30;52.30;;;;;;8324624;28;20041;-65
2021/03/19 13:00:08;;;;;;;10.45;7.80;;;14.30;58.90;;;;;;8325985;28;20052;-64
2021/03/19 13:04:09;;;;;;;11.15;6.93;;;10.30;71.40;;;;;;8328846;28;20510;-64
2021/03/19 13:08:10;;;;;;;12.15;7.82;;;8.00;79.70;;;;;;8319967;28;20037;-64
2021/03/19 13:12:10;;;;;;;7.63;5.25;;;6.90;92.70;;;;;;8320161;28;20075;-65
2021/03/19 13:16:12;;;;;;;6.15;4.40;;;6.20;96.40;;;;;;8322354;28;20029;-65
2021/03/19 13:20:13;;;;;;;9.65;6.65;;;5.10;96.70;;;;;;8325558;28;20024;-64
2021/03/19 13:24:14;;;;;;;10.30;5.82;;;4.80;99.90;;;;;;8330920;28;20030;-65
2021/03/19 13:28:16;;;;;;;8.25;5.50;;;4.40;99.90;;;;;;8329560;28;20068;-64
2021/03/19 13:32:17;;;;;;;6.15;4.20;;;4.30;99.90;;;;;;8329319;28;20368;-64
2021/03/19 13:36:18;;;;;;;8.30;4.93;;;3.90;99.90;;;;;;8328396;28;20025;-64
2021/03/19 13:40:23;;;;;;;6.40;3.55;;;2.50;99.90;;;;;;8325384;28;20029;-64
2021/03/19 13:44:23;;;;;;;5.95;4.05;;;1.70;99.90;;;;;;8324488;28;20475;-64
2021/03/19 13:48:25;;;;;;;6.53;4.75;;;1.70;99.90;;;;;;8323938;28;20025;-64
2021/03/19 13:52:26;;;;;;;6.07;3.85;;;1.80;99.90;;;;;;8327094;28;20206;-64
2021/03/19 13:56:26;;;;;;;2.15;1.60;;;2.20;99.90;;;;;;8331689;28;20108;-64
2021/03/19 14:00:31;;;;;;;4.82;3.78;;;2.60;99.90;;;;;;8333065;28;20033;-64
2021/03/19 14:04:32;;;;;;;4.57;3.20;;;2.70;99.90;;;;;;8326302;28;20025;-64
2021/03/19 14:08:36;;;;;;;2.55;2.15;;;2.40;99.90;;;;;;8326386;28;20079;-64
2021/03/19 14:12:37;;;;;;;3.92;2.75;;;2.40;99.90;;;;;;8325744;28;20033;-65
2021/03/19 14:16:37;;;;;;;1.60;1.08;;;2.00;99.90;;;;;;8329090;28;20165;-64
2021/03/19 14:20:42;;;;;;;5.18;3.78;;;2.00;99.90;;;;;;8329780;28;20047;-65
2021/03/19 14:24:43;;;;;;;3.78;2.45;;;2.10;99.90;;;;;;8314971;28;20499;-65
2021/03/19 14:28:44;;;;;;;6.65;4.57;;;2.20;99.90;;;;;;8324517;28;20063;-65
2021/03/19 14:32:45;;;;;;;5.57;4.45;;;2.20;99.90;;;;;;8324878;28;20480;-65
2021/03/19 14:36:46;;;;;;;6.60;4.65;;;2.30;99.90;;;;;;8326638;28;20029;-65
2021/03/19 14:40:49;;;;;;;8.40;5.38;;;2.50;99.90;;;;;;8328782;28;20017;-65
2021/03/19 14:44:49;;;;;;;7.80;5.18;;;2.80;99.90;;;;;;8319945;28;20116;-65
2021/03/19 14:48:50;;;;;;;9.88;4.38;;;3.30;99.90;;;;;;8321950;28;20396;-65
2021/03/19 14:52:51;;;;;;;6.07;4.22;;;3.90;99.90;;;;;;8325565;28;20041;-65
2021/03/19 14:56:52;;;;;;;6.80;5.05;;;4.90;99.90;;;;;;8327178;28;20026;-64
2021/03/19 15:00:54;;;;;;;5.88;4.00;;;5.10;99.90;;;;;;8324971;28;20034;-64
2021/03/19 15:04:55;;;;;;;6.93;4.63;;;5.10;99.90;;;;;;8324934;28;20029;-66
2021/03/19 15:08:55;;;;;;;3.97;3.55;;;6.10;99.90;;;;;;8325142;28;20302;-66
2021/03/19 15:12:56;;;;;;;4.28;3.10;;;7.90;99.90;;;;;;8328759;28;20518;-66
2021/03/19 15:16:56;;;;;;;3.97;3.30;;;8.10;99.90;;;;;;8327355;28;20400;-66
2021/03/19 15:21:00;;;;;;;5.28;3.90;;;7.20;99.90;;;;;;8329109;28;20120;-65
2021/03/19 15:25:02;;;;;;;3.92;3.40;;;6.70;99.90;;;;;;8320999;28;20037;-66
2021/03/19 15:29:05;;;;;;;4.70;3.25;;;6.40;99.90;;;;;;8316021;28;20044;-66
2021/03/19 15:33:05;;;;;;;6.40;4.60;;;6.10;99.90;;;;;;8304508;28;20030;-65
2021/03/19 15:37:06;;;;;;;8.52;4.50;;;5.60;99.90;;;;;;8313650;28;20037;-66
2021/03/19 15:41:07;;;;;;;7.00;4.15;;;4.90;99.90;;;;;;8325822;28;20026;-65
2021/03/19 15:45:08;;;;;;;4.53;3.53;;;4.40;99.90;;;;;;8317047;28;20215;-65
2021/03/19 15:49:09;;;;;;;7.05;4.38;;;4.20;99.90;;;;;;8313723;28;20029;-65
2021/03/19 15:53:11;;;;;;;6.85;3.88;;;4.10;99.90;;;;;;8321960;28;20029;-65
2021/03/19 15:57:12;;;;;;;5.10;3.60;;;4.20;99.90;;;;;;8319619;28;20017;-65
2021/03/19 16:01:12;;;;;;;4.93;3.10;;;4.10;99.90;;;;;;8319438;28;20116;-65
2021/03/19 16:05:13;;;;;;;5.35;3.20;;;4.10;99.90;;;;;;8319472;28;21384;-65
2021/03/19 16:09:14;;;;;;;5.57;3.80;;;4.10;99.90;;;;;;8317220;28;20058;-66
2021/03/19 16:13:15;;;;;;;7.05;3.83;;;4.10;99.90;;;;;;8321047;28;20076;-66
2021/03/19 16:17:16;;;;;;;5.93;3.65;;;4.10;99.90;;;;;;8315764;28;20053;-65
2021/03/19 16:21:18;;;;;;;5.60;3.92;;;4.20;99.90;;;;;;8315057;28;20036;-66
2021/03/19 16:25:19;;;;;;;7.43;4.18;;;4.10;99.90;;;;;;8316771;28;20038;-65
2021/03/19 16:29:22;;;;;;;5.10;3.75;;;4.20;99.90;;;;;;8317988;28;20168;-66
2021/03/19 16:33:24;;;;;;;9.30;5.57;;;4.40;99.90;;;;;;8315459;28;20025;-66
2021/03/19 16:37:26;;;;;;;11.45;6.28;;;4.40;99.90;;;;;;8316524;28;20492;-65
2021/03/19 16:41:26;;;;;;;5.95;4.50;;;4.30;99.90;;;;;;8317676;28;20036;-65
2021/03/19 16:45:29;;;;;;;5.03;3.65;;;3.90;99.90;;;;;;8306499;28;20807;-66
2021/03/19 16:49:30;;;;;;;6.47;4.78;;;3.70;99.90;;;;;;8318480;28;20483;-65
2021/03/19 16:53:32;;;;;;;6.78;4.82;;;3.50;99.90;;;;;;8320742;28;20642;-65
2021/03/19 16:57:32;;;;;;;8.60;5.03;;;3.30;99.90;;;;;;8326453;28;20013;-65
2021/03/19 17:01:33;;;;;;;7.60;4.28;;;3.20;99.90;;;;;;8331985;28;20052;-64
2021/03/19 17:05:34;;;;;;;8.32;5.15;;;3.00;99.90;;;;;;8320465;28;20033;-66
2021/03/19 17:09:35;;;;;;;7.43;4.70;;;2.90;99.90;;;;;;8312678;28;20687;-64
2021/03/19 17:13:36;;;;;;;9.68;5.25;;;2.70;99.90;;;;;;8322448;28;20068;-64
2021/03/19 17:17:36;;;;;;;7.15;4.72;;;2.60;99.90;;;;;;8325849;28;20041;-63
2021/03/19 17:21:37;;;;;;;8.68;5.00;;;2.50;99.90;;;;;;8325461;28;20080;-64
2021/03/19 17:25:41;;;;;;;7.05;4.35;;;2.20;99.90;;;;;;8321680;28;20499;-65
2021/03/19 17:29:42;;;;;;;6.57;4.50;;;2.10;99.90;;;;;;8323223;28;20209;-67
2021/03/19 17:33:42;;;;;;;8.80;4.95;;;2.10;99.90;;;;;;8327693;28;20054;-68
2021/03/19 17:37:43;;;;;;;9.30;5.70;;;2.10;99.90;;;;;;8325718;28;20643;-68
2021/03/19 17:41:44;;;;;;;9.05;5.50;;;2.00;99.90;;;;;;8331742;28;20029;-68
2021/03/19 17:45:48;;;;;;;8.80;5.53;;;1.90;99.90;;;;;;8329270;28;20029;-68
2021/03/19 17:49:48;;;;;;;9.60;5.88;;;1.80;99.90;;;;;;8328634;28;20061;-67
2021/03/19 17:53:49;;;;;;;10.00;6.43;;;1.80;99.90;;;;;;8350982;22;20415;-69
2021/03/19 17:57:52;;;;;;;47.10;16.17;;;1.70;99.90;;;;;;8330334;28;20077;-68
2021/03/19 18:01:52;;;;;;;35.15;15.60;;;1.70;99.90;;;;;;8355813;28;20055;-69
2021/03/19 18:05:53;;;;;;;39.00;19.10;;;1.70;99.90;;;;;;8333739;28;20049;-69
2021/03/19 18:09:53;;;;;;;14.68;7.50;;;1.60;99.90;;;;;;8332039;28;20033;-69
2021/03/19 18:13:54;;;;;;;9.32;6.88;;;1.60;99.90;;;;;;8334292;28;20134;-68
2021/03/19 18:17:55;;;;;;;10.35;7.00;;;1.50;99.90;;;;;;8335877;28;20380;-68
2021/03/19 18:21:56;;;;;;;11.32;7.05;;;1.50;99.90;;;;;;8336900;28;20060;-69
2021/03/19 18:25:59;;;;;;;16.27;9.65;;;1.40;99.90;;;;;;8333418;28;20696;-69
2021/03/19 18:30:00;;;;;;;32.45;19.00;;;1.40;99.90;;;;;;8325252;28;21553;-68
2021/03/19 18:34:01;;;;;;;16.00;9.65;;;1.30;99.90;;;;;;8327451;28;20029;-69
2021/03/19 18:38:02;;;;;;;40.80;24.45;;;1.30;99.90;;;;;;8332340;28;20029;-68
2021/03/19 18:42:04;;;;;;;17.73;10.23;;;1.30;99.90;;;;;;8330414;28;20511;-68
2021/03/19 18:46:05;;;;;;;11.65;8.07;;;1.40;99.90;;;;;;8327223;28;20030;-68
2021/03/19 18:50:08;;;;;;;11.80;7.35;;;1.40;99.90;;;;;;8325367;28;20527;-68
2021/03/19 18:54:09;;;;;;;11.82;7.75;;;1.30;99.90;;;;;;8325591;28;20400;-68
2021/03/19 18:58:11;;;;;;;11.77;7.63;;;1.30;99.90;;;;;;8326127;28;20079;-68
2021/03/19 19:02:11;;;;;;;11.02;7.35;;;1.30;99.90;;;;;;8325360;28;20612;-69
2021/03/19 19:06:12;;;;;;;13.38;7.95;;;1.30;99.90;;;;;;8328731;28;20095;-69
2021/03/19 19:10:18;;;;;;;10.20;6.68;;;1.30;99.90;;;;;;8329347;28;20036;-69
2021/03/19 19:14:18;;;;;;;13.02;7.85;;;1.30;99.90;;;;;;8325291;28;20037;-68
2021/03/19 19:18:20;;;;;;;13.65;7.35;;;1.30;99.90;;;;;;8327559;28;20625;-69
2021/03/19 19:22:21;;;;;;;10.70;7.35;;;1.20;99.90;;;;;;8329157;28;20733;-69
2021/03/19 19:26:22;;;;;;;10.77;6.32;;;1.10;99.90;;;;;;8329964;28;20030;-68
2021/03/19 19:30:27;;;;;;;10.82;6.82;;;1.10;99.90;;;;;;8325532;28;20087;-69
2021/03/19 19:34:28;;;;;;;10.85;6.53;;;1.10;99.90;;;;;;8321658;28;20761;-69
2021/03/19 19:38:29;;;;;;;11.75;7.03;;;1.10;99.90;;;;;;8325266;28;20075;-69
2021/03/19 19:42:30;;;;;;;9.85;6.57;;;1.00;99.90;;;;;;8313221;28;20057;-69
2021/03/19 19:46:32;;;;;;;10.77;6.60;;;1.10;99.90;;;;;;8323501;28;20029;-69
2021/03/19 19:50:38;;;;;;;11.80;7.25;;;1.10;99.90;;;;;;8325091;28;20037;-69
2021/03/19 19:54:39;;;;;;;12.80;7.22;;;1.20;99.90;;;;;;8321791;28;20765;-69
2021/03/19 19:58:45;;;;;;;9.82;6.57;;;1.10;99.90;;;;;;8324971;28;20030;-70
2021/03/19 20:02:46;;;;;;;12.77;7.47;;;1.00;99.90;;;;;;8323667;28;20422;-69
2021/03/19 20:06:46;;;;;;;10.15;6.55;;;1.10;99.90;;;;;;8319782;28;20152;-69
2021/03/19 20:10:47;;;;;;;12.75;7.03;;;1.10;99.90;;;;;;8324136;28;20025;-69
2021/03/19 20:14:48;;;;;;;11.45;6.90;;;0.90;99.90;;;;;;8324822;28;20030;-69
2021/03/19 20:18:55;;;;;;;9.55;6.30;;;0.90;99.90;;;;;;8324379;28;20037;-69
2021/03/19 20:22:56;;;;;;;12.05;6.85;;;0.90;99.90;;;;;;8323100;28;20035;-69
2021/03/19 20:26:57;;;;;;;11.57;6.97;;;0.90;99.90;;;;;;8324942;28;20030;-69
2021/03/19 20:31:00;;;;;;;10.10;6.25;;;0.80;99.90;;;;;;8324549;28;20128;-69
2021/03/19 20:35:01;;;;;;;11.50;7.35;;;0.80;99.90;;;;;;8322764;28;20034;-69
2021/03/19 20:39:07;;;;;;;11.13;7.07;;;0.80;99.90;;;;;;8323050;28;20083;-69
2021/03/19 20:43:08;;;;;;;13.10;7.18;;;0.80;99.90;;;;;;8324545;28;20049;-69
2021/03/19 20:47:34;;;;;;;12.10;7.40;;;0.80;99.90;;;;;;8326549;28;20075;-70
2021/03/19 20:51:35;;;;;;;12.30;7.07;;;0.70;99.90;;;;;;8324797;28;20030;-69
2021/03/19 20:55:36;;;;;;;11.90;7.25;;;0.60;99.90;;;;;;8323247;28;20318;-69
2021/03/19 20:59:36;;;;;;;10.95;6.82;;;0.60;99.90;;;;;;8324324;28;20252;-69
2021/03/19 21:03:40;;;;;;;13.35;7.30;;;0.50;99.90;;;;;;8324119;28;20029;-69
2021/03/19 21:07:40;;;;;;;10.82;6.85;;;0.50;99.90;;;;;;8323612;28;20484;-70
2021/03/19 21:11:43;;;;;;;13.07;6.70;;;0.30;99.90;;;;;;8322978;28;20038;-69
2021/03/19 21:15:44;;;;;;;14.27;7.18;;;0.30;99.90;;;;;;8322992;28;20029;-69